Time;durP1;ratioP1;P1;durP2;ratioP2;P2;SDS_P1;SDS_P2;PMS_P1;PMS_P2;Temp;Humidity;BMP_temperature;BMP_pressure;BME280_temperature;BME280_humidity;BME280_pressure;Samples;Min_cycle;Max_cycle;Signal;HPM_P1;HPM_P2
2023/06/01 00:02:42;;;;;;;5.75;3.83;;;13.40;83.50;;;;;;6227495;28;20053;-78
2023/06/01 00:05:43;;;;;;;8.05;4.25;;;13.30;83.90;;;;;;6229544;28;20065;-78
2023/06/01 00:08:45;;;;;;;5.30;3.78;;;13.30;84.30;;;;;;6228652;28;20423;-78
2023/06/01 00:11:48;;;;;;;8.27;3.47;;;13.30;84.50;;;;;;6228806;28;20471;-79
2023/06/01 00:14:50;;;;;;;4.70;3.30;;;13.30;84.90;;;;;;6229577;28;20052;-78
2023/06/01 00:17:52;;;;;;;5.25;3.72;;;13.20;85.20;;;;;;6227317;28;20053;-78
2023/06/01 00:20:53;;;;;;;5.10;3.13;;;13.20;86.30;;;;;;6227943;28;20050;-78
2023/06/01 00:23:55;;;;;;;3.90;3.22;;;13.10;85.80;;;;;;6227797;28;20049;-78
2023/06/01 00:26:58;;;;;;;6.38;3.47;;;13.10;86.20;;;;;;6239968;28;20136;-78
2023/06/01 00:30:01;;;;;;;5.07;3.72;;;13.00;86.80;;;;;;6251697;28;20176;-79
2023/06/01 00:33:03;;;;;;;5.35;3.72;;;13.10;87.20;;;;;;6253074;28;20053;-79
2023/06/01 00:36:05;;;;;;;10.07;3.95;;;13.00;87.40;;;;;;6251714;28;20052;-78
2023/06/01 00:39:06;;;;;;;5.75;3.30;;;12.90;87.80;;;;;;6235613;28;20042;-79
2023/06/01 00:42:10;;;;;;;12.20;5.70;;;12.90;88.10;;;;;;6227157;28;20056;-78
2023/06/01 00:45:11;;;;;;;7.45;4.40;;;12.90;88.60;;;;;;6235369;28;20045;-78
2023/06/01 00:48:15;;;;;;;7.68;3.78;;;12.80;88.90;;;;;;6251125;28;20049;-78
2023/06/01 00:51:16;;;;;;;12.75;4.30;;;12.80;89.00;;;;;;6252799;28;20053;-79
2023/06/01 00:54:18;;;;;;;6.43;3.63;;;12.80;89.40;;;;;;6250777;28;20045;-78
2023/06/01 00:57:26;;;;;;;5.82;3.15;;;12.70;89.60;;;;;;6252646;28;20061;-79
2023/06/01 01:00:29;;;;;;;5.57;3.85;;;12.70;89.80;;;;;;6254832;28;20053;-79
2023/06/01 01:03:31;;;;;;;6.65;3.25;;;12.70;90.00;;;;;;6255046;28;20399;-78
2023/06/01 01:06:45;;;;;;;7.15;3.70;;;12.60;90.10;;;;;;6253323;28;20124;-79
2023/06/01 01:09:55;;;;;;;10.70;4.03;;;12.60;90.30;;;;;;6253592;28;20124;-79
2023/06/01 01:13:06;;;;;;;8.55;6.43;;;12.50;90.40;;;;;;6228744;28;20042;-79
2023/06/01 01:16:12;;;;;;;10.13;3.88;;;12.40;90.60;;;;;;6228931;28;20068;-78
2023/06/01 01:19:31;;;;;;;6.97;4.20;;;12.40;90.70;;;;;;6227856;28;20041;-78
2023/06/01 01:22:56;;;;;;;14.13;4.25;;;12.50;90.90;;;;;;6227126;28;20046;-79
2023/06/01 01:26:13;;;;;;;6.28;3.10;;;12.40;91.10;;;;;;6227183;28;20408;-79
2023/06/01 01:29:17;;;;;;;11.40;6.80;;;12.40;91.20;;;;;;6226973;28;20432;-78
2023/06/01 01:32:20;;;;;;;8.45;4.20;;;12.40;91.20;;;;;;6228642;28;20052;-79
2023/06/01 01:35:22;;;;;;;5.45;4.10;;;12.30;91.30;;;;;;6229127;28;20053;-79
2023/06/01 01:38:24;;;;;;;4.45;3.30;;;12.40;91.50;;;;;;6226911;28;20090;-78
2023/06/01 01:41:26;;;;;;;4.53;3.88;;;12.30;91.50;;;;;;6226926;28;20453;-78
2023/06/01 01:44:29;;;;;;;12.90;3.85;;;12.30;91.60;;;;;;6226285;28;20045;-78
2023/06/01 01:47:41;;;;;;;6.07;5.30;;;12.40;91.70;;;;;;6226434;28;20085;-78
2023/06/01 01:50:50;;;;;;;4.47;3.20;;;12.40;91.90;;;;;;6201776;28;20050;-78
2023/06/01 01:53:53;;;;;;;4.65;3.17;;;12.50;91.90;;;;;;6219316;28;20053;-78
2023/06/01 01:56:59;;;;;;;7.18;3.28;;;12.60;91.80;;;;;;6226258;28;20042;-79
2023/06/01 02:00:02;;;;;;;7.57;3.25;;;12.80;91.70;;;;;;6226367;28;20050;-78
2023/06/01 02:03:04;;;;;;;4.65;3.17;;;12.90;91.40;;;;;;6225468;28;20567;-78
2023/06/01 02:06:07;;;;;;;4.78;3.13;;;13.00;91.20;;;;;;6226078;28;20057;-78
2023/06/01 02:09:08;;;;;;;5.97;3.45;;;13.00;91.10;;;;;;6225432;28;20057;-78
2023/06/01 02:12:11;;;;;;;4.43;3.45;;;13.00;90.90;;;;;;6226168;28;20046;-78
2023/06/01 02:15:14;;;;;;;6.25;4.30;;;13.00;90.90;;;;;;6225718;28;20160;-78
2023/06/01 02:18:17;;;;;;;3.78;3.13;;;12.90;91.00;;;;;;6225415;28;20052;-78
2023/06/01 02:21:19;;;;;;;4.38;2.97;;;12.80;91.10;;;;;;6226094;28;20397;-78
2023/06/01 02:24:21;;;;;;;9.23;3.30;;;12.80;91.30;;;;;;6225621;28;20054;-78
2023/06/01 02:27:23;;;;;;;4.97;3.47;;;12.80;91.40;;;;;;6225265;28;20112;-79
2023/06/01 02:30:26;;;;;;;5.55;2.58;;;12.70;91.40;;;;;;6226055;28;20057;-78
2023/06/01 02:33:28;;;;;;;11.68;3.22;;;12.70;91.50;;;;;;6251278;28;20045;-78
2023/06/01 02:36:31;;;;;;;4.38;3.10;;;12.70;91.60;;;;;;6249414;28;20507;-79
2023/06/01 02:39:33;;;;;;;3.38;2.85;;;12.70;91.60;;;;;;6252740;28;20500;-78
2023/06/01 02:42:35;;;;;;;8.07;3.35;;;12.70;91.70;;;;;;6273440;28;20049;-78
2023/06/01 02:45:38;;;;;;;4.30;3.60;;;12.70;91.80;;;;;;6273253;28;20084;-78
2023/06/01 02:48:40;;;;;;;3.40;2.83;;;12.80;91.90;;;;;;6273939;28;20044;-78
2023/06/01 02:51:41;;;;;;;4.70;2.58;;;12.80;91.80;;;;;;6273639;28;20053;-78
2023/06/01 02:54:43;;;;;;;6.40;3.55;;;12.90;91.90;;;;;;6274132;28;20053;-78
2023/06/01 02:57:45;;;;;;;4.30;2.97;;;12.90;91.90;;;;;;6273497;28;20041;-78
2023/06/01 03:00:48;;;;;;;10.85;6.55;;;13.00;92.00;;;;;;6275361;28;20052;-78
2023/06/01 03:03:52;;;;;;;6.43;3.10;;;13.00;91.90;;;;;;6274533;28;20060;-79
2023/06/01 03:06:54;;;;;;;6.75;3.10;;;13.10;92.30;;;;;;6277257;28;20045;-78
2023/06/01 03:09:56;;;;;;;8.98;4.78;;;13.20;92.10;;;;;;6270311;28;20049;-79
2023/06/01 03:12:57;;;;;;;7.88;4.00;;;13.10;92.00;;;;;;6243402;28;20056;-77
2023/06/01 03:16:00;;;;;;;5.25;3.10;;;13.10;92.10;;;;;;6250184;28;20051;-78
2023/06/01 03:19:02;;;;;;;4.47;3.00;;;13.20;92.30;;;;;;6249792;28;20045;-78
2023/06/01 03:22:04;;;;;;;7.32;3.67;;;13.10;92.30;;;;;;6246540;28;20046;-77
2023/06/01 03:25:07;;;;;;;4.20;3.40;;;13.10;92.40;;;;;;6245924;28;20448;-78
2023/06/01 03:28:09;;;;;;;5.82;3.47;;;13.10;92.40;;;;;;6246687;28;20052;-77
2023/06/01 03:31:12;;;;;;;4.25;3.20;;;13.10;92.40;;;;;;6247457;28;20061;-78
2023/06/01 03:34:13;;;;;;;3.42;2.70;;;13.10;92.50;;;;;;6245583;28;20057;-78
2023/06/01 03:37:15;;;;;;;7.50;4.53;;;13.10;92.60;;;;;;6247231;28;20121;-78
2023/06/01 03:40:17;;;;;;;4.82;3.00;;;13.10;92.60;;;;;;6249602;28;20041;-78
2023/06/01 03:43:18;;;;;;;6.55;3.80;;;13.10;92.60;;;;;;6250179;28;20053;-78
2023/06/01 03:46:21;;;;;;;5.50;3.22;;;13.10;92.60;;;;;;6249824;28;20061;-78
2023/06/01 03:49:23;;;;;;;5.05;3.50;;;13.10;92.70;;;;;;6249385;28;20045;-78
2023/06/01 03:52:25;;;;;;;6.22;3.80;;;13.00;92.80;;;;;;6249700;28;20419;-77
2023/06/01 03:55:27;;;;;;;5.18;3.22;;;13.10;93.00;;;;;;6250100;28;20049;-78
2023/06/01 03:58:29;;;;;;;3.75;3.20;;;13.20;93.00;;;;;;6248689;28;20045;-78
2023/06/01 04:01:33;;;;;;;7.30;3.50;;;13.30;92.80;;;;;;6249675;28;20052;-78
2023/06/01 04:04:35;;;;;;;6.63;3.80;;;13.40;92.70;;;;;;6249671;28;20499;-78
2023/06/01 04:07:37;;;;;;;5.20;3.75;;;13.40;92.70;;;;;;6249547;28;20060;-78
2023/06/01 04:10:41;;;;;;;7.10;3.53;;;13.40;92.70;;;;;;6249574;28;20060;-78
2023/06/01 04:13:43;;;;;;;12.77;3.67;;;13.50;92.80;;;;;;6249272;28;20053;-78
2023/06/01 04:16:46;;;;;;;4.90;3.17;;;13.50;92.90;;;;;;6249518;28;20122;-78
2023/06/01 04:19:48;;;;;;;4.78;3.00;;;13.50;93.10;;;;;;6248795;28;20056;-77
2023/06/01 04:22:50;;;;;;;5.35;3.47;;;13.70;93.20;;;;;;6249855;28;20495;-78
2023/06/01 04:25:53;;;;;;;5.22;3.33;;;14.10;92.80;;;;;;6248765;28;20499;-78
2023/06/01 04:28:56;;;;;;;5.93;3.50;;;14.30;92.40;;;;;;6248502;28;20042;-78
2023/06/01 04:31:59;;;;;;;6.65;2.97;;;14.40;92.20;;;;;;6342837;23;20066;-84
2023/06/01 04:35:04;;;;;;;5.90;3.25;;;14.50;92.10;;;;;;6333975;28;20504;-84
2023/06/01 04:38:06;;;;;;;9.75;5.88;;;14.70;92.20;;;;;;6357107;28;20606;-83
2023/06/01 04:41:09;;;;;;;6.15;3.70;;;14.80;92.20;;;;;;6342424;28;20054;-84
2023/06/01 04:44:13;;;;;;;10.70;3.90;;;15.00;92.00;;;;;;6333136;28;20153;-84
2023/06/01 04:47:16;;;;;;;7.72;3.47;;;15.10;91.80;;;;;;6314500;28;20084;-84
2023/06/01 04:50:18;;;;;;;4.32;2.80;;;15.30;91.60;;;;;;6305178;28;20045;-84
2023/06/01 04:53:20;;;;;;;10.68;4.15;;;15.50;91.50;;;;;;6305051;28;20127;-84
2023/06/01 04:56:25;;;;;;;3.33;2.70;;;15.90;91.50;;;;;;6304687;28;20052;-84
2023/06/01 04:59:26;;;;;;;9.15;4.20;;;16.40;91.20;;;;;;6304384;28;20094;-84
2023/06/01 05:02:29;;;;;;;5.18;3.38;;;16.80;90.50;;;;;;6303321;28;20055;-84
2023/06/01 05:05:31;;;;;;;6.53;3.63;;;17.20;89.60;;;;;;6304899;28;20044;-86
2023/06/01 05:08:33;;;;;;;7.43;3.67;;;17.50;88.30;;;;;;6304042;28;20201;-83
2023/06/01 05:11:35;;;;;;;5.70;3.53;;;17.80;87.10;;;;;;6305571;28;20052;-84
2023/06/01 05:14:36;;;;;;;4.88;3.50;;;18.10;85.60;;;;;;6305548;28;20040;-84
2023/06/01 05:17:39;;;;;;;6.60;3.80;;;18.50;84.40;;;;;;6303659;28;20040;-83
2023/06/01 05:20:41;;;;;;;5.63;3.17;;;18.90;83.20;;;;;;6302100;28;20052;-84
2023/06/01 05:23:43;;;;;;;6.05;3.67;;;19.30;82.10;;;;;;6301974;28;20044;-84
2023/06/01 05:26:45;;;;;;;6.47;3.65;;;19.70;81.10;;;;;;6306427;28;20055;-84
2023/06/01 05:29:47;;;;;;;7.93;3.53;;;20.10;80.40;;;;;;6304082;28;20056;-84
2023/06/01 05:32:50;;;;;;;5.28;3.20;;;20.60;79.80;;;;;;6310402;28;20059;-83
2023/06/01 05:35:52;;;;;;;4.45;2.95;;;21.30;77.10;;;;;;6311961;28;20053;-83
2023/06/01 05:38:54;;;;;;;3.45;2.72;;;22.30;74.30;;;;;;6310135;28;20045;-83
2023/06/01 05:41:56;;;;;;;13.57;4.28;;;23.40;71.10;;;;;;6310225;28;20545;-81
2023/06/01 05:44:57;;;;;;;7.72;2.80;;;24.40;67.80;;;;;;6308803;28;20131;-81
2023/06/01 05:48:00;;;;;;;9.73;3.17;;;25.40;65.20;;;;;;6307973;28;20048;-81
2023/06/01 05:51:02;;;;;;;4.30;2.70;;;26.20;61.00;;;;;;6308684;28;20041;-81
2023/06/01 05:54:04;;;;;;;7.75;3.97;;;26.80;58.80;;;;;;6308789;28;20044;-82
2023/06/01 05:57:07;;;;;;;7.80;3.78;;;27.30;56.80;;;;;;6307715;28;20062;-81
2023/06/01 06:00:11;;;;;;;6.68;3.65;;;27.70;54.90;;;;;;6308921;28;20521;-81
2023/06/01 06:03:14;;;;;;;6.45;3.70;;;27.90;53.30;;;;;;6307065;28;20048;-79
2023/06/01 06:06:16;;;;;;;7.93;3.42;;;28.00;52.30;;;;;;6290210;28;20388;-80
2023/06/01 06:09:17;;;;;;;5.32;2.67;;;28.00;52.00;;;;;;6299293;28;20044;-78
2023/06/01 06:12:19;;;;;;;4.45;2.47;;;28.20;51.70;;;;;;6308732;28;20032;-80
2023/06/01 06:15:21;;;;;;;12.80;3.38;;;28.50;51.10;;;;;;6296603;28;20055;-80
2023/06/01 06:18:24;;;;;;;5.00;3.15;;;28.80;49.90;;;;;;6295494;28;20044;-80
2023/06/01 06:21:25;;;;;;;10.90;2.97;;;29.00;49.00;;;;;;6291819;28;22842;-79
2023/06/01 06:24:27;;;;;;;8.88;4.00;;;29.10;49.10;;;;;;6299460;28;20040;-81
2023/06/01 06:27:29;;;;;;;10.10;3.33;;;29.20;48.20;;;;;;6296510;28;20053;-81
2023/06/01 06:30:30;;;;;;;6.70;3.00;;;29.30;47.60;;;;;;6281329;28;20490;-81
2023/06/01 06:33:33;;;;;;;9.95;3.10;;;29.10;47.30;;;;;;6278816;28;20037;-81
2023/06/01 06:36:36;;;;;;;6.78;3.55;;;29.20;47.00;;;;;;6281447;28;20059;-82
2023/06/01 06:39:38;;;;;;;6.40;2.15;;;29.30;46.30;;;;;;6287483;28;20044;-81
2023/06/01 06:42:40;;;;;;;5.53;2.92;;;29.10;45.70;;;;;;6285397;28;20104;-82
2023/06/01 06:45:42;;;;;;;5.25;2.28;;;28.90;45.40;;;;;;6284046;28;20174;-81
2023/06/01 06:48:45;;;;;;;8.63;2.72;;;28.80;45.50;;;;;;6279145;28;20458;-82
2023/06/01 06:51:47;;;;;;;6.38;1.98;;;28.90;45.30;;;;;;6270273;28;20059;-81
2023/06/01 06:54:49;;;;;;;5.35;2.40;;;29.00;45.10;;;;;;6275839;28;20304;-83
2023/06/01 06:57:50;;;;;;;4.97;2.42;;;29.20;44.80;;;;;;6272767;28;20376;-83
2023/06/01 07:00:52;;;;;;;5.70;3.08;;;29.20;44.50;;;;;;6271974;28;20045;-82
2023/06/01 07:03:55;;;;;;;4.38;2.70;;;29.40;44.50;;;;;;6276593;28;20041;-82
2023/06/01 07:06:57;;;;;;;6.85;2.13;;;29.50;44.50;;;;;;6276281;28;20044;-82
2023/06/01 07:09:58;;;;;;;5.38;2.78;;;29.90;43.90;;;;;;6274738;28;21146;-82
2023/06/01 07:13:00;;;;;;;3.88;2.53;;;29.90;43.90;;;;;;6276989;28;20052;-81
2023/06/01 07:16:03;;;;;;;3.00;2.67;;;30.10;43.30;;;;;;6281018;28;20414;-81
2023/06/01 07:19:06;;;;;;;3.25;2.63;;;30.00;43.60;;;;;;6280648;28;20142;-82
2023/06/01 07:22:08;;;;;;;7.60;2.50;;;30.10;43.40;;;;;;6280442;28;20049;-83
2023/06/01 07:25:12;;;;;;;6.32;2.92;;;30.30;43.10;;;;;;6278982;28;20047;-81
2023/06/01 07:28:15;;;;;;;4.00;2.40;;;30.20;42.80;;;;;;6280667;28;20057;-82
2023/06/01 07:31:17;;;;;;;4.05;2.80;;;30.30;43.30;;;;;;6281418;28;20033;-81
2023/06/01 07:34:20;;;;;;;8.00;3.00;;;30.60;43.00;;;;;;6277936;28;20048;-81
2023/06/01 07:37:23;;;;;;;7.72;3.30;;;30.70;42.60;;;;;;6278629;28;20033;-81
2023/06/01 07:40:25;;;;;;;7.63;2.72;;;30.50;42.60;;;;;;6279704;28;20045;-82
2023/06/01 07:43:26;;;;;;;6.05;3.08;;;30.50;42.70;;;;;;6278728;28;20057;-82
2023/06/01 07:46:28;;;;;;;3.92;2.45;;;30.70;42.70;;;;;;6279167;28;20048;-82
2023/06/01 07:49:31;;;;;;;4.70;2.42;;;31.00;42.60;;;;;;6278317;28;20044;-81
2023/06/01 07:52:33;;;;;;;6.78;2.92;;;31.40;42.60;;;;;;6278623;28;20052;-82
2023/06/01 07:55:35;;;;;;;10.05;2.55;;;32.00;42.20;;;;;;6280207;28;20052;-82
2023/06/01 07:58:37;;;;;;;5.13;2.85;;;31.80;41.10;;;;;;6279478;28;20049;-83
2023/06/01 08:01:39;;;;;;;11.93;3.67;;;31.50;41.70;;;;;;6279291;28;20052;-81
2023/06/01 08:04:44;;;;;;;4.22;3.00;;;31.40;42.10;;;;;;6278933;28;20075;-82
2023/06/01 08:07:46;;;;;;;5.53;3.25;;;31.50;41.70;;;;;;6278663;28;20346;-80
2023/06/01 08:10:48;;;;;;;6.45;3.03;;;31.70;41.50;;;;;;6280727;28;20487;-83
2023/06/01 08:13:50;;;;;;;6.78;3.30;;;32.00;41.10;;;;;;6274166;28;20080;-81
2023/06/01 08:16:52;;;;;;;7.75;3.05;;;32.10;40.70;;;;;;6277570;28;20067;-83
2023/06/01 08:19:55;;;;;;;8.55;3.63;;;32.10;40.40;;;;;;6277189;28;20049;-82
2023/06/01 08:22:57;;;;;;;10.30;2.47;;;32.00;40.70;;;;;;6278032;28;20041;-82
2023/06/01 08:25:58;;;;;;;6.93;2.80;;;32.20;40.90;;;;;;6278456;28;20129;-82
2023/06/01 08:29:00;;;;;;;6.28;2.92;;;32.40;40.80;;;;;;6277672;28;20041;-83
2023/06/01 08:32:02;;;;;;;6.15;2.72;;;32.50;40.20;;;;;;6279852;28;20049;-82
2023/06/01 08:35:06;;;;;;;5.45;2.80;;;32.90;40.00;;;;;;6279055;28;20045;-82
2023/06/01 08:38:08;;;;;;;5.25;2.90;;;33.10;39.70;;;;;;6277804;28;20379;-82
2023/06/01 08:41:18;;;;;;;4.00;2.40;;;33.10;39.80;;;;;;6280367;28;20057;-82
2023/06/01 08:44:23;;;;;;;5.30;3.88;;;33.30;39.40;;;;;;6277916;28;21682;-83
2023/06/01 08:47:26;;;;;;;6.82;2.78;;;33.40;38.80;;;;;;6277982;28;20049;-82
2023/06/01 08:50:30;;;;;;;3.38;2.40;;;33.50;39.00;;;;;;6277332;28;20068;-84
2023/06/01 08:53:33;;;;;;;7.93;2.88;;;33.50;38.90;;;;;;6279288;28;20047;-82
2023/06/01 08:56:35;;;;;;;7.95;3.08;;;33.10;38.90;;;;;;6277225;28;20052;-80
2023/06/01 08:59:38;;;;;;;6.50;2.75;;;32.30;39.20;;;;;;6275766;28;20064;-82
2023/06/01 09:02:42;;;;;;;3.28;2.70;;;31.50;39.80;;;;;;6281986;28;20198;-82
2023/06/01 09:05:45;;;;;;;6.25;3.13;;;30.70;40.30;;;;;;6282307;28;20101;-81
2023/06/01 09:08:47;;;;;;;6.13;2.85;;;29.90;41.20;;;;;;6279378;28;20057;-81
2023/06/01 09:11:48;;;;;;;5.13;3.25;;;29.20;41.90;;;;;;6277664;28;20051;-81
2023/06/01 09:14:50;;;;;;;6.57;3.22;;;28.90;42.50;;;;;;6277477;28;20054;-81
2023/06/01 09:18:05;;;;;;;4.22;2.75;;;28.80;42.80;;;;;;6276646;28;20064;-82
2023/06/01 09:21:15;;;;;;;6.60;3.17;;;28.70;43.30;;;;;;6279006;28;20052;-81
2023/06/01 09:24:21;;;;;;;4.70;3.65;;;28.80;43.30;;;;;;6277491;28;20123;-81
2023/06/01 09:27:23;;;;;;;5.97;2.88;;;28.80;43.40;;;;;;6278459;28;20084;-81
2023/06/01 09:30:27;;;;;;;4.72;3.67;;;28.80;43.30;;;;;;6276255;28;20419;-80
2023/06/01 09:33:28;;;;;;;12.13;3.22;;;28.60;43.50;;;;;;6275647;28;20044;-81
2023/06/01 09:36:32;;;;;;;9.52;3.03;;;28.40;44.20;;;;;;6286633;28;20052;-80
2023/06/01 09:39:35;;;;;;;6.68;3.92;;;28.30;44.20;;;;;;6309747;28;20428;-81
2023/06/01 09:42:36;;;;;;;6.25;3.40;;;28.40;44.40;;;;;;6289065;28;20049;-81
2023/06/01 09:45:38;;;;;;;5.95;3.25;;;28.60;44.60;;;;;;6291681;28;20053;-79
2023/06/01 09:48:42;;;;;;;7.32;2.90;;;28.90;44.50;;;;;;6282703;28;20044;-81
2023/06/01 09:51:45;;;;;;;8.00;3.83;;;29.10;44.30;;;;;;6282183;28;20065;-81
2023/06/01 09:54:49;;;;;;;6.38;2.97;;;29.20;44.30;;;;;;6283973;28;20052;-81
2023/06/01 09:57:51;;;;;;;5.53;3.45;;;29.10;44.50;;;;;;6282768;28;20044;-81
2023/06/01 10:00:53;;;;;;;5.70;3.00;;;29.10;44.20;;;;;;6283952;28;20232;-81
2023/06/01 10:04:01;;;;;;;4.30;3.90;;;29.20;44.20;;;;;;6274521;28;20049;-82
2023/06/01 10:07:06;;;;;;;4.15;2.90;;;29.40;44.40;;;;;;6277359;28;20423;-79
2023/06/01 10:10:08;;;;;;;6.18;3.83;;;29.60;44.30;;;;;;6300147;28;20059;-82
2023/06/01 10:13:11;;;;;;;10.20;3.10;;;29.90;44.20;;;;;;6297636;28;20055;-80
2023/06/01 10:16:13;;;;;;;5.35;3.38;;;30.10;43.90;;;;;;6284177;28;20048;-81
2023/06/01 10:19:15;;;;;;;11.50;3.63;;;30.20;44.00;;;;;;6265145;28;20053;-81
2023/06/01 10:22:18;;;;;;;9.27;4.20;;;30.30;43.90;;;;;;6261426;28;20108;-81
2023/06/01 10:25:24;;;;;;;6.25;3.95;;;30.20;43.40;;;;;;6263237;28;20415;-80
2023/06/01 10:28:29;;;;;;;6.53;3.45;;;30.00;43.60;;;;;;6263799;28;20049;-81
2023/06/01 10:31:35;;;;;;;11.63;3.97;;;30.10;43.60;;;;;;6258671;28;20045;-80
2023/06/01 10:34:41;;;;;;;6.35;3.30;;;30.40;43.50;;;;;;6262257;28;20041;-80
2023/06/01 10:38:04;;;;;;;8.97;4.73;;;30.70;43.30;;;;;;6257320;28;20045;-80
2023/06/01 10:41:31;;;;;;;9.15;4.25;;;30.80;42.60;;;;;;6258295;28;20041;-80
2023/06/01 10:44:49;;;;;;;8.88;4.28;;;30.60;42.30;;;;;;6272111;28;20051;-81
2023/06/01 10:47:51;;;;;;;7.63;3.42;;;31.10;42.00;;;;;;6276383;28;20050;-81
2023/06/01 10:51:18;;;;;;;5.82;3.80;;;30.80;41.80;;;;;;6273292;28;20097;-80
2023/06/01 10:54:31;;;;;;;6.70;3.45;;;30.70;41.80;;;;;;6281991;28;20068;-81
2023/06/01 10:57:33;;;;;;;10.77;4.05;;;30.80;40.80;;;;;;6285650;28;20571;-82
2023/06/01 11:00:41;;;;;;;7.60;3.38;;;30.70;40.50;;;;;;6275094;28;20840;-82
2023/06/01 11:03:47;;;;;;;5.60;3.40;;;31.00;40.60;;;;;;6271740;28;20057;-80
2023/06/01 11:06:49;;;;;;;7.30;3.70;;;31.40;40.90;;;;;;6271278;28;20127;-81
2023/06/01 11:09:52;;;;;;;7.95;2.53;;;31.70;40.20;;;;;;6274784;28;20057;-80
2023/06/01 11:13:11;;;;;;;6.35;3.10;;;31.80;38.50;;;;;;6272689;28;20045;-80
2023/06/01 11:16:32;;;;;;;6.25;3.50;;;31.80;37.70;;;;;;6272290;28;20049;-80
2023/06/01 11:19:35;;;;;;;10.20;2.92;;;31.60;38.30;;;;;;6272035;28;20124;-80
2023/06/01 11:22:38;;;;;;;6.80;3.63;;;32.00;37.80;;;;;;6267317;28;20701;-80
2023/06/01 11:25:43;;;;;;;7.45;3.28;;;32.40;38.10;;;;;;6270957;28;20044;-82
2023/06/01 11:28:45;;;;;;;7.28;3.30;;;32.50;39.20;;;;;;6276958;28;20399;-80
2023/06/01 11:31:49;;;;;;;5.75;2.33;;;32.70;37.60;;;;;;6281500;28;20060;-80
2023/06/01 11:34:51;;;;;;;3.38;2.50;;;32.70;36.30;;;;;;6298715;28;20052;-81
2023/06/01 11:37:56;;;;;;;2.28;1.90;;;32.90;35.40;;;;;;6293891;28;20108;-80
2023/06/01 11:41:03;;;;;;;3.95;2.58;;;32.60;34.70;;;;;;6299268;28;20043;-81
2023/06/01 11:44:05;;;;;;;;;;;32.30;35.00;;;;;;6300500;28;20070;-80
2023/06/01 11:47:07;;;;;;;10.73;2.30;;;32.50;35.50;;;;;;6300440;28;20397;-80
2023/06/01 11:50:21;;;;;;;3.05;2.05;;;32.80;34.80;;;;;;6272779;28;20051;-81
2023/06/01 11:53:23;;;;;;;6.40;2.55;;;32.60;34.30;;;;;;6267387;28;20059;-80
2023/06/01 11:56:34;;;;;;;4.93;2.35;;;32.20;34.50;;;;;;6277861;28;20052;-81
2023/06/01 11:59:39;;;;;;;3.20;2.28;;;32.00;34.40;;;;;;6304742;28;20115;-81
2023/06/01 12:02:42;;;;;;;3.45;2.30;;;32.00;34.50;;;;;;6282645;28;20069;-80
2023/06/01 12:05:45;;;;;;;4.75;3.58;;;31.90;34.50;;;;;;6283696;28;20064;-82
2023/06/01 12:08:47;;;;;;;5.07;2.63;;;32.30;34.60;;;;;;6282524;28;20037;-82
2023/06/01 12:11:51;;;;;;;6.97;2.95;;;32.50;34.40;;;;;;6280568;28;20041;-82
2023/06/01 12:14:53;;;;;;;6.20;2.58;;;32.40;34.60;;;;;;6284771;28;20044;-82
2023/06/01 12:17:56;;;;;;;2.33;1.88;;;32.10;34.80;;;;;;6279661;28;20053;-81
2023/06/01 12:20:58;;;;;;;3.22;2.20;;;32.10;34.70;;;;;;6281585;28;20498;-82
2023/06/01 12:24:00;;;;;;;2.50;2.30;;;32.30;34.90;;;;;;6275432;28;20041;-81
2023/06/01 12:27:12;;;;;;;5.00;2.63;;;32.60;34.70;;;;;;6274177;28;20045;-81
2023/06/01 12:30:23;;;;;;;5.70;2.50;;;33.10;34.50;;;;;;6279671;28;20410;-81
2023/06/01 12:33:33;;;;;;;6.07;2.58;;;33.70;34.50;;;;;;6276687;28;20955;-81
2023/06/01 12:36:37;;;;;;;5.75;2.72;;;34.10;34.60;;;;;;6276252;28;20051;-80
2023/06/01 12:39:40;;;;;;;10.73;3.20;;;34.30;34.90;;;;;;6271616;28;20072;-80
2023/06/01 12:42:43;;;;;;;8.05;2.90;;;34.40;34.90;;;;;;6272534;28;20404;-79
2023/06/01 12:45:45;;;;;;;5.88;2.70;;;34.30;35.30;;;;;;6282494;28;20521;-80
2023/06/01 12:48:47;;;;;;;6.18;2.42;;;34.10;34.80;;;;;;6286889;28;20407;-80
2023/06/01 12:51:49;;;;;;;3.85;2.85;;;33.90;35.20;;;;;;6284399;28;20045;-81
2023/06/01 12:54:53;;;;;;;3.80;2.20;;;33.70;34.80;;;;;;6277789;28;20056;-80
2023/06/01 12:57:56;;;;;;;8.55;2.83;;;33.90;35.00;;;;;;6271290;28;20040;-81
2023/06/01 13:00:58;;;;;;;5.30;3.35;;;34.40;35.50;;;;;;6256733;28;20045;-82
2023/06/01 13:04:00;;;;;;;4.38;3.38;;;34.80;35.60;;;;;;6262378;28;20063;-82
2023/06/01 13:07:01;;;;;;;9.75;2.47;;;35.00;35.20;;;;;;6261581;28;20150;-81
2023/06/01 13:10:04;;;;;;;5.32;2.65;;;35.00;34.70;;;;;;6260595;28;20146;-81
2023/06/01 13:13:08;;;;;;;5.28;2.65;;;34.90;34.70;;;;;;6263532;28;20041;-82
2023/06/01 13:16:10;;;;;;;3.78;3.13;;;35.10;34.60;;;;;;6265990;28;20060;-82
2023/06/01 13:19:12;;;;;;;5.25;3.47;;;34.90;34.50;;;;;;6263319;28;20071;-82
2023/06/01 13:22:15;;;;;;;6.78;3.05;;;34.50;34.90;;;;;;6264288;28;20495;-81
2023/06/01 13:25:16;;;;;;;3.05;2.47;;;34.50;34.30;;;;;;6261094;28;20056;-81
2023/06/01 13:28:19;;;;;;;7.57;3.03;;;34.20;33.80;;;;;;6272665;28;20526;-81
2023/06/01 13:31:21;;;;;;;4.80;2.28;;;34.20;34.50;;;;;;6276692;28;20049;-82
2023/06/01 13:34:23;;;;;;;8.27;2.75;;;34.50;34.50;;;;;;6275465;28;20054;-81
2023/06/01 13:37:25;;;;;;;9.70;2.80;;;34.70;34.50;;;;;;6277592;28;20041;-81
2023/06/01 13:40:26;;;;;;;2.92;2.10;;;34.90;34.10;;;;;;6271198;28;20053;-81
2023/06/01 13:43:29;;;;;;;8.55;2.95;;;35.30;34.10;;;;;;6281306;28;20056;-82
2023/06/01 13:46:31;;;;;;;4.53;2.40;;;35.30;33.70;;;;;;6276963;28;20065;-82
2023/06/01 13:49:33;;;;;;;5.25;2.65;;;35.30;33.50;;;;;;6270440;28;20045;-82
2023/06/01 13:52:35;;;;;;;4.28;2.40;;;35.30;33.50;;;;;;6265667;28;20068;-82
2023/06/01 13:55:38;;;;;;;8.55;3.97;;;35.30;33.50;;;;;;6273143;28;20486;-81
2023/06/01 13:58:41;;;;;;;5.55;2.97;;;35.10;33.60;;;;;;6272571;28;20091;-81
2023/06/01 14:01:43;;;;;;;7.78;2.22;;;34.90;34.00;;;;;;6268666;28;20514;-83
2023/06/01 14:04:45;;;;;;;11.70;3.10;;;35.20;33.80;;;;;;6281798;28;20499;-81
2023/06/01 14:07:47;;;;;;;3.67;2.67;;;35.30;33.20;;;;;;6300276;28;20055;-82
2023/06/01 14:10:48;;;;;;;12.32;2.75;;;35.00;33.60;;;;;;6274062;28;20053;-82
2023/06/01 14:13:52;;;;;;;3.65;2.83;;;35.10;33.40;;;;;;6277455;28;20041;-82
2023/06/01 14:16:53;;;;;;;8.07;4.03;;;35.00;33.50;;;;;;6278942;28;20061;-81
2023/06/01 14:19:55;;;;;;;5.90;3.13;;;34.80;33.70;;;;;;6279398;28;21640;-82
2023/06/01 14:22:57;;;;;;;6.18;2.83;;;34.80;33.50;;;;;;6287332;28;20052;-81
2023/06/01 14:25:59;;;;;;;5.97;2.58;;;34.80;33.70;;;;;;6280986;28;20528;-84
2023/06/01 14:29:02;;;;;;;7.00;3.35;;;34.90;33.40;;;;;;6274909;28;20029;-81
2023/06/01 14:32:04;;;;;;;5.03;2.70;;;34.90;33.40;;;;;;6273961;28;20053;-81
2023/06/01 14:35:07;;;;;;;6.68;3.50;;;35.20;33.30;;;;;;6266063;28;20735;-82
2023/06/01 14:38:09;;;;;;;3.60;2.95;;;35.30;33.00;;;;;;6268111;28;20060;-82
2023/06/01 14:41:10;;;;;;;5.65;3.50;;;35.60;32.90;;;;;;6275743;28;20082;-81
2023/06/01 14:44:14;;;;;;;5.40;2.42;;;35.60;32.90;;;;;;6278510;28;20048;-81
2023/06/01 14:47:15;;;;;;;5.72;2.65;;;35.50;33.00;;;;;;6277882;28;20109;-81
2023/06/01 14:50:18;;;;;;;2.78;2.15;;;35.70;33.10;;;;;;6279880;28;20298;-82
2023/06/01 14:53:20;;;;;;;4.70;2.65;;;35.80;32.80;;;;;;6283046;28;20041;-82
2023/06/01 14:56:22;;;;;;;6.00;2.55;;;35.80;32.50;;;;;;6287697;28;20059;-82
2023/06/01 14:59:25;;;;;;;6.90;2.80;;;35.90;32.40;;;;;;6303586;28;20052;-82
2023/06/01 15:02:27;;;;;;;8.52;3.45;;;35.90;32.80;;;;;;6305120;28;20185;-82
2023/06/01 15:05:29;;;;;;;7.32;2.63;;;35.50;33.00;;;;;;6302287;28;20108;-82
2023/06/01 15:08:31;;;;;;;4.45;2.20;;;35.40;33.20;;;;;;6302218;28;20118;-82
2023/06/01 15:11:32;;;;;;;4.88;2.55;;;35.40;32.50;;;;;;6301377;28;20063;-82
2023/06/01 15:14:36;;;;;;;3.75;2.42;;;35.20;32.70;;;;;;6306723;28;20051;-82
2023/06/01 15:17:37;;;;;;;5.93;2.55;;;35.00;33.00;;;;;;6285966;28;20128;-81
2023/06/01 15:20:39;;;;;;;4.13;3.05;;;35.20;32.50;;;;;;6268488;28;20052;-83
2023/06/01 15:23:41;;;;;;;5.22;2.47;;;35.20;31.80;;;;;;6270792;28;20207;-84
2023/06/01 15:26:43;;;;;;;6.35;2.83;;;35.20;32.20;;;;;;6297195;28;20137;-83
2023/06/01 15:29:47;;;;;;;4.93;2.28;;;35.10;32.80;;;;;;6286266;28;20578;-82
2023/06/01 15:32:48;;;;;;;5.82;3.05;;;35.00;33.20;;;;;;6280058;28;20057;-82
2023/06/01 15:35:50;;;;;;;11.05;3.10;;;34.60;33.30;;;;;;6282429;28;20542;-83
2023/06/01 15:38:52;;;;;;;7.00;2.95;;;34.10;33.60;;;;;;6268628;28;20144;-84
2023/06/01 15:41:54;;;;;;;5.32;2.58;;;33.80;33.90;;;;;;6261083;28;20100;-82
2023/06/01 15:44:57;;;;;;;4.75;2.35;;;33.80;34.10;;;;;;6260396;28;20408;-82
2023/06/01 15:47:58;;;;;;;5.22;2.38;;;33.80;34.10;;;;;;6262082;28;20407;-83
2023/06/01 15:51:00;;;;;;;5.47;2.67;;;33.80;34.00;;;;;;6261901;28;20403;-82
2023/06/01 15:54:02;;;;;;;3.85;2.80;;;33.90;34.10;;;;;;6258486;28;20067;-82